sensor_id;sensor_type;location;lat;lon;timestamp;P1;durP1;ratioP1;P2;durP2;ratioP2
46282;SDS011;32017;43.700;11.820;2023-07-31T00:00:22;1.55;;;1.45;;
46282;SDS011;32017;43.700;11.820;2023-07-31T00:02:42;1.65;;;1.55;;
46282;SDS011;32017;43.700;11.820;2023-07-31T00:05:02;1.90;;;1.15;;
46282;SDS011;32017;43.700;11.820;2023-07-31T00:07:22;1.30;;;1.30;;
46282;SDS011;32017;43.700;11.820;2023-07-31T00:09:43;1.85;;;1.70;;
46282;SDS011;32017;43.700;11.820;2023-07-31T00:12:03;3.80;;;1.58;;
46282;SDS011;32017;43.700;11.820;2023-07-31T00:14:23;1.25;;;1.25;;
46282;SDS011;32017;43.700;11.820;2023-07-31T00:16:43;1.30;;;1.20;;
46282;SDS011;32017;43.700;11.820;2023-07-31T00:19:03;1.58;;;1.48;;
46282;SDS011;32017;43.700;11.820;2023-07-31T00:21:23;1.40;;;1.40;;
46282;SDS011;32017;43.700;11.820;2023-07-31T00:23:43;1.20;;;1.20;;
46282;SDS011;32017;43.700;11.820;2023-07-31T00:26:03;1.40;;;1.40;;
46282;SDS011;32017;43.700;11.820;2023-07-31T00:28:22;1.55;;;1.55;;
46282;SDS011;32017;43.700;11.820;2023-07-31T00:30:42;2.22;;;1.20;;
46282;SDS011;32017;43.700;11.820;2023-07-31T00:33:03;1.20;;;1.20;;
46282;SDS011;32017;43.700;11.820;2023-07-31T00:35:23;1.40;;;1.40;;
46282;SDS011;32017;43.700;11.820;2023-07-31T00:37:43;1.50;;;1.40;;
46282;SDS011;32017;43.700;11.820;2023-07-31T00:40:02;1.30;;;1.20;;
46282;SDS011;32017;43.700;11.820;2023-07-31T00:42:22;1.20;;;1.20;;
46282;SDS011;32017;43.700;11.820;2023-07-31T00:44:43;2.38;;;1.20;;
46282;SDS011;32017;43.700;11.820;2023-07-31T00:47:03;1.33;;;1.23;;
46282;SDS011;32017;43.700;11.820;2023-07-31T00:49:23;3.15;;;1.30;;
46282;SDS011;32017;43.700;11.820;2023-07-31T00:51:43;1.40;;;1.40;;
46282;SDS011;32017;43.700;11.820;2023-07-31T00:54:03;1.50;;;1.40;;
46282;SDS011;32017;43.700;11.820;2023-07-31T00:56:23;1.50;;;1.40;;
46282;SDS011;32017;43.700;11.820;2023-07-31T00:58:44;2.05;;;1.35;;
46282;SDS011;32017;43.700;11.820;2023-07-31T01:01:04;1.73;;;1.63;;
46282;SDS011;32017;43.700;11.820;2023-07-31T01:03:24;1.10;;;1.10;;
46282;SDS011;32017;43.700;11.820;2023-07-31T01:11:07;2.10;;;1.60;;
46282;SDS011;32017;43.700;11.820;2023-07-31T01:13:39;1.30;;;1.30;;
46282;SDS011;32017;43.700;11.820;2023-07-31T01:15:59;2.20;;;1.65;;
46282;SDS011;32017;43.700;11.820;2023-07-31T01:18:18;1.50;;;1.50;;
46282;SDS011;32017;43.700;11.820;2023-07-31T01:20:38;2.38;;;1.75;;
46282;SDS011;32017;43.700;11.820;2023-07-31T01:28:32;2.08;;;1.98;;
46282;SDS011;32017;43.700;11.820;2023-07-31T01:31:03;2.00;;;1.90;;
46282;SDS011;32017;43.700;11.820;2023-07-31T01:33:26;1.63;;;1.60;;
46282;SDS011;32017;43.700;11.820;2023-07-31T01:35:47;2.35;;;2.15;;
46282;SDS011;32017;43.700;11.820;2023-07-31T01:38:09;1.63;;;1.63;;
46282;SDS011;32017;43.700;11.820;2023-07-31T01:40:29;2.58;;;2.47;;
46282;SDS011;32017;43.700;11.820;2023-07-31T01:42:49;1.92;;;1.83;;
46282;SDS011;32017;43.700;11.820;2023-07-31T01:45:09;2.85;;;1.95;;
46282;SDS011;32017;43.700;11.820;2023-07-31T01:47:30;1.63;;;1.60;;
46282;SDS011;32017;43.700;11.820;2023-07-31T01:49:50;1.70;;;1.70;;
46282;SDS011;32017;43.700;11.820;2023-07-31T01:52:10;1.52;;;1.42;;
46282;SDS011;32017;43.700;11.820;2023-07-31T01:54:30;3.08;;;2.17;;
46282;SDS011;32017;43.700;11.820;2023-07-31T01:56:50;1.60;;;1.60;;
46282;SDS011;32017;43.700;11.820;2023-07-31T01:59:10;1.75;;;1.65;;
46282;SDS011;32017;43.700;11.820;2023-07-31T02:01:30;1.75;;;1.65;;
46282;SDS011;32017;43.700;11.820;2023-07-31T02:03:50;1.60;;;1.60;;
46282;SDS011;32017;43.700;11.820;2023-07-31T02:06:10;1.95;;;1.85;;
46282;SDS011;32017;43.700;11.820;2023-07-31T02:08:30;1.88;;;1.77;;
46282;SDS011;32017;43.700;11.820;2023-07-31T02:10:51;1.90;;;1.73;;
46282;SDS011;32017;43.700;11.820;2023-07-31T02:13:11;3.10;;;1.67;;
46282;SDS011;32017;43.700;11.820;2023-07-31T02:15:31;2.80;;;2.05;;
46282;SDS011;32017;43.700;11.820;2023-07-31T02:17:51;1.58;;;1.48;;
46282;SDS011;32017;43.700;11.820;2023-07-31T02:20:11;1.80;;;1.70;;
46282;SDS011;32017;43.700;11.820;2023-07-31T02:22:31;2.17;;;1.40;;
46282;SDS011;32017;43.700;11.820;2023-07-31T02:24:51;1.52;;;1.52;;
46282;SDS011;32017;43.700;11.820;2023-07-31T02:27:11;1.70;;;1.50;;
46282;SDS011;32017;43.700;11.820;2023-07-31T02:29:31;1.95;;;1.85;;
46282;SDS011;32017;43.700;11.820;2023-07-31T02:31:51;1.40;;;1.40;;
46282;SDS011;32017;43.700;11.820;2023-07-31T02:34:12;2.00;;;1.60;;
46282;SDS011;32017;43.700;11.820;2023-07-31T02:36:31;2.75;;;1.42;;
46282;SDS011;32017;43.700;11.820;2023-07-31T02:38:51;1.65;;;1.60;;
46282;SDS011;32017;43.700;11.820;2023-07-31T02:41:11;1.63;;;1.52;;
46282;SDS011;32017;43.700;11.820;2023-07-31T02:43:32;1.52;;;1.42;;
46282;SDS011;32017;43.700;11.820;2023-07-31T02:45:52;1.73;;;1.60;;
46282;SDS011;32017;43.700;11.820;2023-07-31T02:48:12;2.33;;;2.13;;
46282;SDS011;32017;43.700;11.820;2023-07-31T02:50:32;1.58;;;1.58;;
46282;SDS011;32017;43.700;11.820;2023-07-31T02:52:53;1.83;;;1.73;;
46282;SDS011;32017;43.700;11.820;2023-07-31T02:55:13;1.60;;;1.60;;
46282;SDS011;32017;43.700;11.820;2023-07-31T02:57:33;1.80;;;1.70;;
46282;SDS011;32017;43.700;11.820;2023-07-31T02:59:53;1.95;;;1.80;;
46282;SDS011;32017;43.700;11.820;2023-07-31T03:02:12;1.98;;;1.88;;
46282;SDS011;32017;43.700;11.820;2023-07-31T03:04:33;1.83;;;1.70;;
46282;SDS011;32017;43.700;11.820;2023-07-31T03:06:53;1.77;;;1.77;;
46282;SDS011;32017;43.700;11.820;2023-07-31T03:09:12;2.05;;;1.88;;
46282;SDS011;32017;43.700;11.820;2023-07-31T03:11:32;3.50;;;2.42;;
46282;SDS011;32017;43.700;11.820;2023-07-31T03:13:52;1.98;;;1.88;;
46282;SDS011;32017;43.700;11.820;2023-07-31T03:16:13;1.80;;;1.70;;
46282;SDS011;32017;43.700;11.820;2023-07-31T03:18:32;2.25;;;2.03;;
46282;SDS011;32017;43.700;11.820;2023-07-31T03:20:53;1.90;;;1.60;;
46282;SDS011;32017;43.700;11.820;2023-07-31T03:23:12;1.98;;;1.92;;
46282;SDS011;32017;43.700;11.820;2023-07-31T03:25:32;4.82;;;2.25;;
46282;SDS011;32017;43.700;11.820;2023-07-31T03:27:52;1.67;;;1.58;;
46282;SDS011;32017;43.700;11.820;2023-07-31T03:30:12;1.92;;;1.90;;
46282;SDS011;32017;43.700;11.820;2023-07-31T03:32:31;1.85;;;1.75;;
46282;SDS011;32017;43.700;11.820;2023-07-31T03:34:52;1.90;;;1.90;;
46282;SDS011;32017;43.700;11.820;2023-07-31T03:37:11;1.90;;;1.90;;
46282;SDS011;32017;43.700;11.820;2023-07-31T03:39:31;1.50;;;1.42;;
46282;SDS011;32017;43.700;11.820;2023-07-31T03:41:52;2.35;;;1.38;;
46282;SDS011;32017;43.700;11.820;2023-07-31T03:44:12;1.90;;;1.70;;
46282;SDS011;32017;43.700;11.820;2023-07-31T03:46:32;1.75;;;1.65;;
46282;SDS011;32017;43.700;11.820;2023-07-31T03:48:53;1.75;;;1.60;;
46282;SDS011;32017;43.700;11.820;2023-07-31T03:51:13;1.60;;;1.50;;
46282;SDS011;32017;43.700;11.820;2023-07-31T03:53:33;1.80;;;1.80;;
46282;SDS011;32017;43.700;11.820;2023-07-31T03:55:52;1.90;;;1.80;;
46282;SDS011;32017;43.700;11.820;2023-07-31T03:58:12;2.33;;;2.22;;
46282;SDS011;32017;43.700;11.820;2023-07-31T04:00:32;1.63;;;1.60;;
46282;SDS011;32017;43.700;11.820;2023-07-31T04:02:52;1.65;;;1.55;;
46282;SDS011;32017;43.700;11.820;2023-07-31T04:05:12;1.90;;;1.80;;
46282;SDS011;32017;43.700;11.820;2023-07-31T04:07:32;1.92;;;1.73;;
46282;SDS011;32017;43.700;11.820;2023-07-31T04:09:51;1.80;;;1.80;;
46282;SDS011;32017;43.700;11.820;2023-07-31T04:12:12;2.20;;;2.10;;
46282;SDS011;32017;43.700;11.820;2023-07-31T04:14:31;4.32;;;2.28;;
46282;SDS011;32017;43.700;11.820;2023-07-31T04:16:51;2.20;;;2.10;;
46282;SDS011;32017;43.700;11.820;2023-07-31T04:19:11;2.92;;;2.63;;
46282;SDS011;32017;43.700;11.820;2023-07-31T04:21:35;2.70;;;2.10;;
46282;SDS011;32017;43.700;11.820;2023-07-31T04:23:55;3.10;;;2.33;;
46282;SDS011;32017;43.700;11.820;2023-07-31T04:26:15;2.55;;;2.47;;
46282;SDS011;32017;43.700;11.820;2023-07-31T04:28:35;3.05;;;2.50;;
46282;SDS011;32017;43.700;11.820;2023-07-31T04:30:55;2.97;;;2.40;;
46282;SDS011;32017;43.700;11.820;2023-07-31T04:33:15;5.40;;;3.00;;
46282;SDS011;32017;43.700;11.820;2023-07-31T04:35:35;3.67;;;3.47;;
46282;SDS011;32017;43.700;11.820;2023-07-31T04:37:56;2.17;;;2.17;;
46282;SDS011;32017;43.700;11.820;2023-07-31T04:40:16;2.50;;;2.40;;
46282;SDS011;32017;43.700;11.820;2023-07-31T04:42:35;2.08;;;1.98;;
46282;SDS011;32017;43.700;11.820;2023-07-31T04:44:56;2.78;;;2.72;;
46282;SDS011;32017;43.700;11.820;2023-07-31T04:47:15;2.47;;;2.25;;
46282;SDS011;32017;43.700;11.820;2023-07-31T04:49:35;2.63;;;2.42;;
46282;SDS011;32017;43.700;11.820;2023-07-31T04:51:55;2.38;;;2.20;;
46282;SDS011;32017;43.700;11.820;2023-07-31T04:54:15;3.05;;;2.53;;
46282;SDS011;32017;43.700;11.820;2023-07-31T04:56:35;2.42;;;2.40;;
46282;SDS011;32017;43.700;11.820;2023-07-31T04:58:55;4.70;;;2.45;;
46282;SDS011;32017;43.700;11.820;2023-07-31T05:01:15;2.60;;;2.40;;
46282;SDS011;32017;43.700;11.820;2023-07-31T05:03:35;4.95;;;2.40;;
46282;SDS011;32017;43.700;11.820;2023-07-31T05:05:55;3.38;;;2.58;;
46282;SDS011;32017;43.700;11.820;2023-07-31T05:08:15;2.40;;;2.30;;
46282;SDS011;32017;43.700;11.820;2023-07-31T05:10:36;4.00;;;2.35;;
46282;SDS011;32017;43.700;11.820;2023-07-31T05:12:56;2.08;;;1.98;;
46282;SDS011;32017;43.700;11.820;2023-07-31T05:15:16;2.55;;;2.35;;
46282;SDS011;32017;43.700;11.820;2023-07-31T05:17:35;2.63;;;2.42;;
46282;SDS011;32017;43.700;11.820;2023-07-31T05:19:55;2.00;;;1.90;;
46282;SDS011;32017;43.700;11.820;2023-07-31T05:22:16;2.33;;;2.22;;
46282;SDS011;32017;43.700;11.820;2023-07-31T05:24:35;2.10;;;2.00;;
46282;SDS011;32017;43.700;11.820;2023-07-31T05:26:55;2.33;;;2.22;;
46282;SDS011;32017;43.700;11.820;2023-07-31T05:29:15;2.83;;;2.05;;
46282;SDS011;32017;43.700;11.820;2023-07-31T05:31:35;1.92;;;1.83;;
46282;SDS011;32017;43.700;11.820;2023-07-31T05:33:57;2.00;;;1.85;;
46282;SDS011;32017;43.700;11.820;2023-07-31T05:36:17;1.85;;;1.85;;
46282;SDS011;32017;43.700;11.820;2023-07-31T05:38:37;2.08;;;1.98;;
46282;SDS011;32017;43.700;11.820;2023-07-31T05:41:00;1.73;;;1.73;;
46282;SDS011;32017;43.700;11.820;2023-07-31T05:43:21;2.20;;;2.10;;
46282;SDS011;32017;43.700;11.820;2023-07-31T05:45:44;1.60;;;1.50;;
46282;SDS011;32017;43.700;11.820;2023-07-31T05:50:23;2.38;;;2.28;;
46282;SDS011;32017;43.700;11.820;2023-07-31T05:52:43;2.17;;;2.08;;
46282;SDS011;32017;43.700;11.820;2023-07-31T05:55:04;2.63;;;2.30;;
46282;SDS011;32017;43.700;11.820;2023-07-31T05:57:24;2.55;;;2.35;;
46282;SDS011;32017;43.700;11.820;2023-07-31T05:59:44;1.98;;;1.70;;
46282;SDS011;32017;43.700;11.820;2023-07-31T06:02:03;2.67;;;2.47;;
46282;SDS011;32017;43.700;11.820;2023-07-31T06:04:23;1.65;;;1.55;;
46282;SDS011;32017;43.700;11.820;2023-07-31T06:06:44;2.35;;;2.15;;
46282;SDS011;32017;43.700;11.820;2023-07-31T06:09:04;2.22;;;2.22;;
46282;SDS011;32017;43.700;11.820;2023-07-31T06:11:24;1.90;;;1.85;;
46282;SDS011;32017;43.700;11.820;2023-07-31T06:13:44;1.55;;;1.45;;
46282;SDS011;32017;43.700;11.820;2023-07-31T06:16:06;1.75;;;1.67;;
46282;SDS011;32017;43.700;11.820;2023-07-31T06:18:26;1.88;;;1.75;;
46282;SDS011;32017;43.700;11.820;2023-07-31T06:20:45;2.45;;;1.50;;
46282;SDS011;32017;43.700;11.820;2023-07-31T06:23:06;5.15;;;1.55;;
46282;SDS011;32017;43.700;11.820;2023-07-31T06:25:26;1.65;;;1.50;;
46282;SDS011;32017;43.700;11.820;2023-07-31T06:27:46;1.80;;;1.70;;
46282;SDS011;32017;43.700;11.820;2023-07-31T06:30:06;1.85;;;1.75;;
46282;SDS011;32017;43.700;11.820;2023-07-31T06:32:26;1.88;;;1.63;;
46282;SDS011;32017;43.700;11.820;2023-07-31T06:34:46;1.52;;;1.42;;
46282;SDS011;32017;43.700;11.820;2023-07-31T06:37:06;3.55;;;2.45;;
46282;SDS011;32017;43.700;11.820;2023-07-31T06:39:25;1.50;;;1.45;;
46282;SDS011;32017;43.700;11.820;2023-07-31T06:41:45;1.63;;;1.52;;
46282;SDS011;32017;43.700;11.820;2023-07-31T06:44:05;3.17;;;2.13;;
46282;SDS011;32017;43.700;11.820;2023-07-31T06:46:25;3.92;;;1.30;;
46282;SDS011;32017;43.700;11.820;2023-07-31T06:48:45;1.25;;;1.20;;
46282;SDS011;32017;43.700;11.820;2023-07-31T06:51:05;1.67;;;1.58;;
46282;SDS011;32017;43.700;11.820;2023-07-31T06:53:25;1.60;;;1.30;;
46282;SDS011;32017;43.700;11.820;2023-07-31T06:55:45;1.67;;;1.60;;
46282;SDS011;32017;43.700;11.820;2023-07-31T06:58:07;1.77;;;1.33;;
46282;SDS011;32017;43.700;11.820;2023-07-31T07:00:27;2.45;;;1.20;;
46282;SDS011;32017;43.700;11.820;2023-07-31T07:02:47;1.25;;;1.10;;
46282;SDS011;32017;43.700;11.820;2023-07-31T07:05:08;1.08;;;0.98;;
46282;SDS011;32017;43.700;11.820;2023-07-31T07:07:28;1.95;;;1.00;;
46282;SDS011;32017;43.700;11.820;2023-07-31T07:09:49;2.47;;;1.20;;
46282;SDS011;32017;43.700;11.820;2023-07-31T07:12:09;1.13;;;0.93;;
46282;SDS011;32017;43.700;11.820;2023-07-31T07:14:29;2.20;;;1.15;;
46282;SDS011;32017;43.700;11.820;2023-07-31T07:16:50;1.95;;;1.20;;
46282;SDS011;32017;43.700;11.820;2023-07-31T07:19:11;2.90;;;1.10;;
46282;SDS011;32017;43.700;11.820;2023-07-31T07:21:31;1.35;;;1.00;;
46282;SDS011;32017;43.700;11.820;2023-07-31T07:23:50;1.77;;;1.20;;
46282;SDS011;32017;43.700;11.820;2023-07-31T07:26:10;0.90;;;0.90;;
46282;SDS011;32017;43.700;11.820;2023-07-31T07:28:30;1.50;;;1.25;;
46282;SDS011;32017;43.700;11.820;2023-07-31T07:30:51;1.05;;;0.90;;
46282;SDS011;32017;43.700;11.820;2023-07-31T07:33:12;2.70;;;0.90;;
46282;SDS011;32017;43.700;11.820;2023-07-31T07:35:33;1.17;;;1.17;;
46282;SDS011;32017;43.700;11.820;2023-07-31T07:37:54;0.98;;;0.80;;
46282;SDS011;32017;43.700;11.820;2023-07-31T07:40:14;1.20;;;0.80;;
46282;SDS011;32017;43.700;11.820;2023-07-31T07:42:34;1.80;;;0.80;;
46282;SDS011;32017;43.700;11.820;2023-07-31T07:44:54;1.00;;;0.90;;
46282;SDS011;32017;43.700;11.820;2023-07-31T07:47:14;1.15;;;0.80;;
46282;SDS011;32017;43.700;11.820;2023-07-31T07:49:34;6.07;;;0.80;;
46282;SDS011;32017;43.700;11.820;2023-07-31T07:51:54;0.95;;;0.70;;
46282;SDS011;32017;43.700;11.820;2023-07-31T07:54:14;0.82;;;0.80;;
46282;SDS011;32017;43.700;11.820;2023-07-31T07:56:36;0.90;;;0.80;;
46282;SDS011;32017;43.700;11.820;2023-07-31T07:58:56;1.02;;;0.80;;
46282;SDS011;32017;43.700;11.820;2023-07-31T08:01:17;0.80;;;0.80;;
46282;SDS011;32017;43.700;11.820;2023-07-31T08:03:37;0.70;;;0.70;;
46282;SDS011;32017;43.700;11.820;2023-07-31T08:05:58;0.70;;;0.70;;
46282;SDS011;32017;43.700;11.820;2023-07-31T08:08:18;3.17;;;0.90;;
46282;SDS011;32017;43.700;11.820;2023-07-31T08:10:39;0.65;;;0.65;;
46282;SDS011;32017;43.700;11.820;2023-07-31T08:12:58;1.48;;;0.80;;
46282;SDS011;32017;43.700;11.820;2023-07-31T08:15:18;1.42;;;0.70;;
46282;SDS011;32017;43.700;11.820;2023-07-31T08:17:39;0.80;;;0.80;;
46282;SDS011;32017;43.700;11.820;2023-07-31T08:19:59;2.70;;;0.80;;
46282;SDS011;32017;43.700;11.820;2023-07-31T08:22:20;1.77;;;0.80;;
46282;SDS011;32017;43.700;11.820;2023-07-31T08:24:41;2.60;;;0.70;;
46282;SDS011;32017;43.700;11.820;2023-07-31T08:27:01;0.70;;;0.70;;
46282;SDS011;32017;43.700;11.820;2023-07-31T08:29:21;0.80;;;0.80;;
46282;SDS011;32017;43.700;11.820;2023-07-31T08:31:42;1.88;;;0.70;;
46282;SDS011;32017;43.700;11.820;2023-07-31T08:34:02;5.57;;;0.80;;
46282;SDS011;32017;43.700;11.820;2023-07-31T08:36:22;3.35;;;0.80;;
46282;SDS011;32017;43.700;11.820;2023-07-31T08:38:42;1.30;;;0.70;;
46282;SDS011;32017;43.700;11.820;2023-07-31T08:41:05;2.25;;;0.90;;
46282;SDS011;32017;43.700;11.820;2023-07-31T08:43:27;3.15;;;1.02;;
46282;SDS011;32017;43.700;11.820;2023-07-31T08:45:48;0.70;;;0.60;;
46282;SDS011;32017;43.700;11.820;2023-07-31T08:48:10;1.73;;;0.70;;
46282;SDS011;32017;43.700;11.820;2023-07-31T08:50:31;4.78;;;0.70;;
46282;SDS011;32017;43.700;11.820;2023-07-31T08:52:52;0.63;;;0.63;;
46282;SDS011;32017;43.700;11.820;2023-07-31T08:55:12;2.95;;;0.90;;
46282;SDS011;32017;43.700;11.820;2023-07-31T08:57:32;1.33;;;0.70;;
46282;SDS011;32017;43.700;11.820;2023-07-31T08:59:54;1.33;;;0.60;;
46282;SDS011;32017;43.700;11.820;2023-07-31T09:02:15;1.30;;;0.60;;
46282;SDS011;32017;43.700;11.820;2023-07-31T09:04:36;2.47;;;0.60;;
46282;SDS011;32017;43.700;11.820;2023-07-31T09:06:57;2.83;;;0.60;;
46282;SDS011;32017;43.700;11.820;2023-07-31T09:09:20;0.60;;;0.60;;
46282;SDS011;32017;43.700;11.820;2023-07-31T09:11:40;0.60;;;0.60;;
46282;SDS011;32017;43.700;11.820;2023-07-31T09:14:00;0.60;;;0.60;;
46282;SDS011;32017;43.700;11.820;2023-07-31T09:16:28;1.63;;;0.60;;
46282;SDS011;32017;43.700;11.820;2023-07-31T09:18:54;0.75;;;0.60;;
46282;SDS011;32017;43.700;11.820;2023-07-31T09:21:16;0.50;;;0.50;;
46282;SDS011;32017;43.700;11.820;2023-07-31T09:23:42;2.28;;;0.60;;
46282;SDS011;32017;43.700;11.820;2023-07-31T09:26:04;1.58;;;0.60;;
46282;SDS011;32017;43.700;11.820;2023-07-31T09:28:24;2.55;;;0.60;;
46282;SDS011;32017;43.700;11.820;2023-07-31T09:30:51;111.63;;;9.25;;
46282;SDS011;32017;43.700;11.820;2023-07-31T09:33:11;4.38;;;0.60;;
46282;SDS011;32017;43.700;11.820;2023-07-31T09:35:32;0.60;;;0.50;;
46282;SDS011;32017;43.700;11.820;2023-07-31T09:37:53;0.50;;;0.50;;
46282;SDS011;32017;43.700;11.820;2023-07-31T09:42:50;0.50;;;0.50;;
46282;SDS011;32017;43.700;11.820;2023-07-31T09:45:11;0.55;;;0.55;;
46282;SDS011;32017;43.700;11.820;2023-07-31T09:47:36;3.50;;;0.60;;
46282;SDS011;32017;43.700;11.820;2023-07-31T09:49:56;2.05;;;0.50;;
46282;SDS011;32017;43.700;11.820;2023-07-31T09:52:15;4.30;;;0.60;;
46282;SDS011;32017;43.700;11.820;2023-07-31T09:54:35;0.93;;;0.50;;
46282;SDS011;32017;43.700;11.820;2023-07-31T09:56:55;5.47;;;0.98;;
46282;SDS011;32017;43.700;11.820;2023-07-31T09:59:18;5.13;;;0.68;;
46282;SDS011;32017;43.700;11.820;2023-07-31T10:01:43;2.70;;;0.65;;
46282;SDS011;32017;43.700;11.820;2023-07-31T10:06:26;0.50;;;0.50;;
46282;SDS011;32017;43.700;11.820;2023-07-31T10:08:46;1.20;;;0.50;;
46282;SDS011;32017;43.700;11.820;2023-07-31T10:11:10;0.50;;;0.50;;
46282;SDS011;32017;43.700;11.820;2023-07-31T10:13:31;0.50;;;0.50;;
46282;SDS011;32017;43.700;11.820;2023-07-31T10:15:52;0.50;;;0.50;;
46282;SDS011;32017;43.700;11.820;2023-07-31T10:18:13;1.13;;;0.50;;
46282;SDS011;32017;43.700;11.820;2023-07-31T10:20:35;1.03;;;0.60;;
46282;SDS011;32017;43.700;11.820;2023-07-31T10:22:56;1.15;;;0.50;;
46282;SDS011;32017;43.700;11.820;2023-07-31T10:25:18;0.85;;;0.50;;
46282;SDS011;32017;43.700;11.820;2023-07-31T10:27:41;0.50;;;0.50;;
46282;SDS011;32017;43.700;11.820;2023-07-31T10:30:01;0.50;;;0.50;;
46282;SDS011;32017;43.700;11.820;2023-07-31T10:32:24;0.50;;;0.50;;
46282;SDS011;32017;43.700;11.820;2023-07-31T10:34:46;0.55;;;0.50;;
46282;SDS011;32017;43.700;11.820;2023-07-31T10:37:21;0.47;;;0.47;;
46282;SDS011;32017;43.700;11.820;2023-07-31T10:40:00;0.50;;;0.50;;
46282;SDS011;32017;43.700;11.820;2023-07-31T10:42:35;0.50;;;0.50;;
46282;SDS011;32017;43.700;11.820;2023-07-31T10:45:09;0.70;;;0.50;;
46282;SDS011;32017;43.700;11.820;2023-07-31T10:47:36;0.40;;;0.40;;
46282;SDS011;32017;43.700;11.820;2023-07-31T10:50:12;0.50;;;0.50;;
46282;SDS011;32017;43.700;11.820;2023-07-31T10:52:40;0.60;;;0.50;;
46282;SDS011;32017;43.700;11.820;2023-07-31T10:56:06;0.43;;;0.43;;
46282;SDS011;32017;43.700;11.820;2023-07-31T10:58:05;0.40;;;0.40;;
46282;SDS011;32017;43.700;11.820;2023-07-31T11:00:29;0.40;;;0.40;;
46282;SDS011;32017;43.700;11.820;2023-07-31T11:08:09;0.50;;;0.50;;
46282;SDS011;32017;43.700;11.820;2023-07-31T11:10:33;0.50;;;0.50;;
46282;SDS011;32017;43.700;11.820;2023-07-31T11:12:53;0.50;;;0.50;;
46282;SDS011;32017;43.700;11.820;2023-07-31T11:15:13;0.65;;;0.40;;
46282;SDS011;32017;43.700;11.820;2023-07-31T11:17:32;0.40;;;0.40;;
46282;SDS011;32017;43.700;11.820;2023-07-31T11:19:53;0.40;;;0.40;;
46282;SDS011;32017;43.700;11.820;2023-07-31T11:22:13;0.40;;;0.40;;
46282;SDS011;32017;43.700;11.820;2023-07-31T11:24:33;0.68;;;0.40;;
46282;SDS011;32017;43.700;11.820;2023-07-31T11:26:54;0.40;;;0.40;;
46282;SDS011;32017;43.700;11.820;2023-07-31T11:29:14;1.80;;;0.50;;
46282;SDS011;32017;43.700;11.820;2023-07-31T11:31:41;0.40;;;0.40;;
46282;SDS011;32017;43.700;11.820;2023-07-31T11:34:05;0.40;;;0.40;;
46282;SDS011;32017;43.700;11.820;2023-07-31T11:36:25;0.40;;;0.40;;
46282;SDS011;32017;43.700;11.820;2023-07-31T11:38:46;0.40;;;0.40;;
46282;SDS011;32017;43.700;11.820;2023-07-31T11:41:06;42.00;;;1.25;;
46282;SDS011;32017;43.700;11.820;2023-07-31T11:43:25;0.30;;;0.30;;
46282;SDS011;32017;43.700;11.820;2023-07-31T11:45:50;0.52;;;0.40;;
46282;SDS011;32017;43.700;11.820;2023-07-31T11:48:10;0.40;;;0.40;;
46282;SDS011;32017;43.700;11.820;2023-07-31T11:50:39;0.40;;;0.40;;
46282;SDS011;32017;43.700;11.820;2023-07-31T11:52:59;0.40;;;0.40;;
46282;SDS011;32017;43.700;11.820;2023-07-31T11:55:22;0.50;;;0.30;;
46282;SDS011;32017;43.700;11.820;2023-07-31T11:57:43;0.40;;;0.40;;
46282;SDS011;32017;43.700;11.820;2023-07-31T12:00:05;0.40;;;0.40;;
46282;SDS011;32017;43.700;11.820;2023-07-31T12:02:27;0.40;;;0.40;;
46282;SDS011;32017;43.700;11.820;2023-07-31T12:04:47;0.38;;;0.38;;
46282;SDS011;32017;43.700;11.820;2023-07-31T12:07:07;0.77;;;0.60;;
46282;SDS011;32017;43.700;11.820;2023-07-31T12:09:27;0.40;;;0.40;;
46282;SDS011;32017;43.700;11.820;2023-07-31T12:11:47;0.32;;;0.32;;
46282;SDS011;32017;43.700;11.820;2023-07-31T12:14:08;0.40;;;0.40;;
46282;SDS011;32017;43.700;11.820;2023-07-31T12:16:43;0.40;;;0.40;;
46282;SDS011;32017;43.700;11.820;2023-07-31T12:19:03;0.30;;;0.30;;
46282;SDS011;32017;43.700;11.820;2023-07-31T12:21:23;1.25;;;0.40;;
46282;SDS011;32017;43.700;11.820;2023-07-31T12:23:46;0.40;;;0.40;;
46282;SDS011;32017;43.700;11.820;2023-07-31T12:26:08;3.13;;;0.40;;
46282;SDS011;32017;43.700;11.820;2023-07-31T12:28:29;0.30;;;0.30;;
46282;SDS011;32017;43.700;11.820;2023-07-31T12:30:50;0.40;;;0.40;;
46282;SDS011;32017;43.700;11.820;2023-07-31T12:33:14;0.30;;;0.30;;
46282;SDS011;32017;43.700;11.820;2023-07-31T12:35:35;3.08;;;0.40;;
46282;SDS011;32017;43.700;11.820;2023-07-31T12:37:56;0.30;;;0.30;;
46282;SDS011;32017;43.700;11.820;2023-07-31T12:40:20;1.77;;;0.40;;
46282;SDS011;32017;43.700;11.820;2023-07-31T12:42:48;0.85;;;0.45;;
46282;SDS011;32017;43.700;11.820;2023-07-31T12:45:08;0.50;;;0.40;;
46282;SDS011;32017;43.700;11.820;2023-07-31T12:47:28;0.80;;;0.40;;
46282;SDS011;32017;43.700;11.820;2023-07-31T12:49:49;0.30;;;0.30;;
46282;SDS011;32017;43.700;11.820;2023-07-31T12:52:09;0.40;;;0.30;;
46282;SDS011;32017;43.700;11.820;2023-07-31T12:54:29;0.40;;;0.35;;
46282;SDS011;32017;43.700;11.820;2023-07-31T12:56:49;0.40;;;0.40;;
46282;SDS011;32017;43.700;11.820;2023-07-31T12:59:09;0.40;;;0.40;;
46282;SDS011;32017;43.700;11.820;2023-07-31T13:01:29;0.30;;;0.30;;
46282;SDS011;32017;43.700;11.820;2023-07-31T13:03:49;3.30;;;0.30;;
46282;SDS011;32017;43.700;11.820;2023-07-31T13:06:10;4.32;;;0.50;;
46282;SDS011;32017;43.700;11.820;2023-07-31T13:08:30;0.40;;;0.40;;
46282;SDS011;32017;43.700;11.820;2023-07-31T13:10:50;2.70;;;0.40;;
46282;SDS011;32017;43.700;11.820;2023-07-31T13:13:10;10.30;;;0.43;;
46282;SDS011;32017;43.700;11.820;2023-07-31T13:15:30;0.30;;;0.30;;
46282;SDS011;32017;43.700;11.820;2023-07-31T13:17:50;5.18;;;0.40;;
46282;SDS011;32017;43.700;11.820;2023-07-31T13:20:10;0.30;;;0.30;;
46282;SDS011;32017;43.700;11.820;2023-07-31T13:22:31;2.88;;;0.30;;
46282;SDS011;32017;43.700;11.820;2023-07-31T13:24:50;0.40;;;0.40;;
46282;SDS011;32017;43.700;11.820;2023-07-31T13:27:10;0.30;;;0.30;;
46282;SDS011;32017;43.700;11.820;2023-07-31T13:29:30;2.42;;;0.80;;
46282;SDS011;32017;43.700;11.820;2023-07-31T13:31:52;0.30;;;0.30;;
46282;SDS011;32017;43.700;11.820;2023-07-31T13:34:12;0.93;;;0.50;;
46282;SDS011;32017;43.700;11.820;2023-07-31T13:36:32;0.32;;;0.30;;
46282;SDS011;32017;43.700;11.820;2023-07-31T13:38:53;17.90;;;2.75;;
46282;SDS011;32017;43.700;11.820;2023-07-31T13:41:12;0.40;;;0.40;;
46282;SDS011;32017;43.700;11.820;2023-07-31T13:43:32;0.50;;;0.40;;
46282;SDS011;32017;43.700;11.820;2023-07-31T13:45:52;0.40;;;0.40;;
46282;SDS011;32017;43.700;11.820;2023-07-31T13:48:11;0.57;;;0.40;;
46282;SDS011;32017;43.700;11.820;2023-07-31T13:50:31;2.25;;;0.50;;
46282;SDS011;32017;43.700;11.820;2023-07-31T13:52:51;3.97;;;0.90;;
46282;SDS011;32017;43.700;11.820;2023-07-31T13:55:10;1.48;;;0.38;;
46282;SDS011;32017;43.700;11.820;2023-07-31T13:57:31;1.85;;;0.32;;
46282;SDS011;32017;43.700;11.820;2023-07-31T13:59:51;0.30;;;0.30;;
46282;SDS011;32017;43.700;11.820;2023-07-31T14:02:11;0.40;;;0.40;;
46282;SDS011;32017;43.700;11.820;2023-07-31T14:04:31;3.90;;;0.40;;
46282;SDS011;32017;43.700;11.820;2023-07-31T14:06:51;0.30;;;0.30;;
46282;SDS011;32017;43.700;11.820;2023-07-31T14:09:11;0.50;;;0.30;;
46282;SDS011;32017;43.700;11.820;2023-07-31T14:11:31;3.50;;;0.40;;
46282;SDS011;32017;43.700;11.820;2023-07-31T14:13:51;1.60;;;0.60;;
46282;SDS011;32017;43.700;11.820;2023-07-31T14:16:11;0.38;;;0.38;;
46282;SDS011;32017;43.700;11.820;2023-07-31T14:18:32;0.40;;;0.40;;